Time;durP1;ratioP1;P1;durP2;ratioP2;P2;SDS_P1;SDS_P2;PMS_P1;PMS_P2;Temp;Humidity;BMP_temperature;BMP_pressure;BME280_temperature;BME280_humidity;BME280_pressure;Samples;Min_cycle;Max_cycle;Signal;HPM_P1;HPM_P2
2021/12/10 00:01:11;;;;;;;24.15;13.80;;;;;;;2.22;100.00;99483.20;1716319;83;21011;-68
2021/12/10 00:03:43;;;;;;;22.00;12.20;;;;;;;2.24;100.00;99488.38;1721086;83;20896;-65
2021/12/10 00:06:16;;;;;;;20.88;13.00;;;;;;;2.22;100.00;99496.80;1721116;83;20852;-66
2021/12/10 00:08:47;;;;;;;20.05;12.15;;;;;;;2.23;100.00;99497.63;1720792;83;21885;-66
2021/12/10 00:11:21;;;;;;;22.75;12.95;;;;;;;2.25;100.00;99502.27;1720822;83;21508;-66
2021/12/10 00:13:48;;;;;;;22.52;13.28;;;;;;;2.25;100.00;99497.63;1721217;83;21413;-67
2021/12/10 00:16:16;;;;;;;20.68;12.43;;;;;;;2.27;100.00;99495.47;1696492;83;21023;-67
2021/12/10 00:18:52;;;;;;;20.75;12.00;;;;;;;2.28;100.00;99495.77;1721200;83;20896;-67
2021/12/10 00:21:13;;;;;;;20.90;12.15;;;;;;;2.29;100.00;99496.56;1720425;83;21144;-67
2021/12/10 00:23:45;;;;;;;18.40;11.57;;;;;;;2.30;100.00;99499.01;1696827;83;20920;-67
2021/12/10 00:26:09;;;;;;;21.12;12.98;;;;;;;2.31;100.00;99495.23;1696403;83;21453;-66
2021/12/10 00:28:39;;;;;;;16.95;10.85;;;;;;;2.33;100.00;99499.04;1696395;83;20955;-67
2021/12/10 00:31:30;;;;;;;22.52;12.58;;;;;;;2.33;100.00;99499.04;1721177;83;20965;-67
2021/12/10 00:34:02;;;;;;;16.97;11.00;;;;;;;2.33;100.00;99503.12;1721476;83;21166;-67
2021/12/10 00:36:30;;;;;;;17.70;10.48;;;;;;;2.35;100.00;99500.13;1720919;83;20970;-67
2021/12/10 00:38:56;;;;;;;16.80;10.80;;;;;;;2.36;100.00;99497.14;1721297;83;20963;-66
2021/12/10 00:41:24;;;;;;;18.75;11.30;;;;;;;2.36;100.00;99497.67;1721130;82;21022;-67
2021/12/10 00:43:50;;;;;;;18.02;10.35;;;;;;;2.38;100.00;99496.34;1721313;83;20852;-67
2021/12/10 00:46:17;;;;;;;15.83;10.82;;;;;;;2.38;100.00;99490.91;1721177;82;21133;-66
2021/12/10 00:48:43;;;;;;;14.03;9.43;;;;;;;2.40;100.00;99492.00;1721155;83;21031;-67
2021/12/10 00:51:10;;;;;;;16.67;9.53;;;;;;;2.40;100.00;99492.82;1695880;83;20952;-66
2021/12/10 00:53:38;;;;;;;15.50;10.85;;;;;;;2.41;100.00;99502.61;1721203;83;21105;-67
2021/12/10 00:56:05;;;;;;;13.60;9.33;;;;;;;2.42;100.00;99505.59;1721501;82;20979;-67
2021/12/10 00:58:32;;;;;;;13.05;9.60;;;;;;;2.43;100.00;99495.00;1695363;83;21770;-67
2021/12/10 01:01:07;;;;;;;14.18;9.45;;;;;;;2.47;100.00;99491.75;1721365;82;20952;-67
2021/12/10 01:03:38;;;;;;;13.95;9.55;;;;;;;2.48;100.00;99485.21;1721122;83;20919;-66
2021/12/10 01:06:12;;;;;;;14.40;9.18;;;;;;;2.50;100.00;99480.33;1721476;83;21610;-67
2021/12/10 01:08:42;;;;;;;14.20;9.05;;;;;;;2.48;100.00;99479.23;1721155;83;21425;-66
2021/12/10 01:11:31;;;;;;;13.85;9.13;;;;;;;2.50;100.00;99474.88;1721559;83;21105;-67
2021/12/10 01:14:11;;;;;;;11.95;8.80;;;;;;;2.50;100.00;99478.97;1695476;83;20972;-66
2021/12/10 01:27:32;;;;;;;14.80;9.05;;;;;;;2.53;100.00;99468.91;1695621;83;20972;-67
2021/12/10 01:30:00;;;;;;;13.40;9.03;;;;;;;2.54;100.00;99459.67;1721159;83;21043;-67
2021/12/10 01:32:30;;;;;;;10.80;7.95;;;;;;;2.56;100.00;99458.84;1695699;83;21004;-67
2021/12/10 01:34:57;;;;;;;11.60;8.13;;;;;;;2.57;100.00;99448.25;1695529;83;21508;-68
2021/12/10 01:37:25;;;;;;;11.03;8.05;;;;;;;2.59;100.00;99446.63;1721144;83;21077;-66
2021/12/10 01:39:52;;;;;;;11.28;8.05;;;;;;;2.60;100.00;99450.44;1695347;83;20935;-67
2021/12/10 01:42:34;;;;;;;12.63;8.38;;;;;;;2.59;100.00;99447.45;1721165;83;20952;-67
2021/12/10 01:44:51;;;;;;;12.58;8.23;;;;;;;2.63;100.00;99442.27;1719227;80;20996;-66
2021/12/10 01:47:24;;;;;;;12.15;8.38;;;;;;;2.63;100.00;99437.65;1721257;83;20929;-66
2021/12/10 01:49:53;;;;;;;11.08;8.18;;;;;;;2.64;100.00;99436.58;1695080;83;21117;-66
2021/12/10 01:52:21;;;;;;;13.58;9.80;;;;;;;2.67;100.00;99427.05;1721300;83;20928;-67
2021/12/10 01:54:56;;;;;;;11.83;8.55;;;;;;;2.67;100.00;99432.48;1721270;83;20912;-67
2021/12/10 01:57:25;;;;;;;16.07;9.55;;;;;;;2.68;100.00;99436.30;1695507;83;21030;-67
2021/12/10 01:59:55;;;;;;;14.40;9.28;;;;;;;2.69;100.00;99437.13;1721203;82;20888;-66
2021/12/10 02:02:26;;;;;;;14.28;9.35;;;;;;;2.69;100.00;99441.20;1695587;83;20985;-66
2021/12/10 02:04:54;;;;;;;15.55;9.60;;;;;;;2.72;100.00;99443.92;1721152;83;21000;-66
2021/12/10 02:07:27;;;;;;;15.85;10.25;;;;;;;2.75;100.00;99447.45;1695780;83;20919;-66
2021/12/10 02:09:55;;;;;;;13.72;9.28;;;;;;;2.76;100.00;99450.47;1721214;83;20979;-67
2021/12/10 02:12:24;;;;;;;16.00;9.60;;;;;;;2.77;100.00;99448.84;1721319;83;20944;-67
2021/12/10 02:14:58;;;;;;;14.18;9.78;;;;;;;2.78;100.00;99444.22;1721146;82;21211;-67
2021/12/10 02:17:21;;;;;;;14.18;9.98;;;;;;;2.80;100.00;99447.47;1720042;83;20943;-66
2021/12/10 02:19:48;;;;;;;13.43;9.10;;;;;;;2.81;100.00;99439.59;1721137;83;20975;-67
2021/12/10 02:22:19;;;;;;;13.78;9.48;;;;;;;2.83;100.00;99448.84;1721123;83;20931;-66
2021/12/10 02:24:45;;;;;;;14.85;9.60;;;;;;;2.84;100.00;99454.55;1721244;83;21528;-66
2021/12/10 02:27:12;;;;;;;13.93;9.60;;;;;;;2.82;100.00;99458.91;1695356;83;21063;-66
2021/12/10 02:29:41;;;;;;;15.48;10.08;;;;;;;2.84;100.00;99454.02;1721200;82;20877;-66
2021/12/10 02:32:10;;;;;;;13.60;9.13;;;;;;;2.86;100.00;99446.94;1696755;83;20888;-65
2021/12/10 02:34:38;;;;;;;14.23;9.58;;;;;;;2.86;100.00;99457.83;1695323;83;21055;-66
2021/12/10 02:37:05;;;;;;;15.68;10.58;;;;;;;2.86;100.00;99458.66;1721099;83;20992;-66
2021/12/10 02:39:32;;;;;;;16.12;10.58;;;;;;;2.85;100.00;99457.57;1696831;83;21108;-67
2021/12/10 02:41:58;;;;;;;14.15;9.60;;;;;;;2.85;100.00;99452.13;1721102;83;20948;-66
2021/12/10 02:44:28;;;;;;;14.35;9.85;;;;;;;2.87;100.00;99448.56;1721118;82;20996;-68
2021/12/10 02:46:56;;;;;;;12.68;9.20;;;;;;;2.87;100.00;99460.28;1721320;83;20920;-66
2021/12/10 02:49:26;;;;;;;12.68;9.05;;;;;;;2.87;100.00;99447.20;1721098;83;21086;-66
2021/12/10 02:51:53;;;;;;;17.30;10.88;;;;;;;2.88;100.00;99452.37;1695495;83;21059;-66
2021/12/10 02:54:32;;;;;;;16.48;11.43;;;;;;;2.88;100.00;99452.94;1721010;82;20995;-67
2021/12/10 02:56:51;;;;;;;15.10;10.40;;;;;;;2.89;100.00;99451.84;1719660;83;20956;-67
2021/12/10 02:59:17;;;;;;;17.27;11.22;;;;;;;2.89;100.00;99447.22;1696623;83;20956;-67
2021/12/10 03:01:49;;;;;;;16.82;11.33;;;;;;;2.92;100.00;99446.67;1696778;83;21083;-68
2021/12/10 03:04:17;;;;;;;18.17;12.05;;;;;;;2.96;100.00;99451.05;1721324;83;20973;-66
2021/12/10 03:06:51;;;;;;;16.45;11.40;;;;;;;2.96;100.00;99444.77;1721098;82;20974;-65
2021/12/10 03:09:20;;;;;;;18.70;12.23;;;;;;;2.98;100.00;99448.05;1696077;83;20952;-66
2021/12/10 03:11:48;;;;;;;16.00;11.33;;;;;;;3.01;100.00;99449.69;1721333;83;20963;-66
2021/12/10 03:14:18;;;;;;;17.73;12.20;;;;;;;3.04;100.00;99456.48;1721225;83;21003;-67
2021/12/10 03:16:48;;;;;;;16.37;11.45;;;;;;;3.04;100.00;99461.39;1696748;83;21212;-67
2021/12/10 03:19:15;;;;;;;17.42;12.25;;;;;;;3.02;100.00;99469.00;1696702;83;21003;-67
2021/12/10 03:21:46;;;;;;;18.15;12.65;;;;;;;3.03;100.00;99468.47;1721288;83;20975;-67
2021/12/10 03:24:15;;;;;;;16.07;11.12;;;;;;;3.03;100.00;99473.91;1721105;83;21047;-68
2021/12/10 03:26:42;;;;;;;16.42;11.38;;;;;;;3.02;100.00;99470.93;1721452;83;20944;-66
2021/12/10 03:29:09;;;;;;;16.70;11.25;;;;;;;3.02;100.00;99468.20;1721214;82;20996;-67
2021/12/10 03:31:36;;;;;;;17.85;11.95;;;;;;;3.02;100.00;99458.68;1696474;83;21535;-67
2021/12/10 03:34:05;;;;;;;16.30;11.80;;;;;;;3.03;100.00;99454.86;1721100;83;21022;-66
2021/12/10 03:36:32;;;;;;;18.10;12.20;;;;;;;3.04;100.00;99449.67;1721070;83;20984;-66
2021/12/10 03:38:59;;;;;;;20.52;13.25;;;;;;;3.04;100.00;99453.22;1696559;83;21472;-67
2021/12/10 03:41:27;;;;;;;22.30;13.75;;;;;;;3.04;100.00;99451.86;1721119;83;21019;-66
2021/12/10 03:43:54;;;;;;;18.75;11.90;;;;;;;3.08;100.00;99452.67;1721097;80;20927;-66
2021/12/10 03:46:20;;;;;;;20.72;13.18;;;;;;;3.10;100.00;99458.67;1696959;83;21424;-67
2021/12/10 03:48:51;;;;;;;19.37;13.15;;;;;;;3.11;100.00;99469.29;1721418;83;20956;-67
2021/12/10 03:51:22;;;;;;;20.68;14.13;;;;;;;3.14;100.00;99471.47;1721240;82;20991;-67
2021/12/10 03:53:48;;;;;;;21.62;12.95;;;;;;;3.14;100.00;99470.10;1721109;83;21134;-66
2021/12/10 03:56:18;;;;;;;16.35;12.03;;;;;;;3.12;100.00;99472.27;1696729;83;21508;-67
2021/12/10 03:58:47;;;;;;;20.72;13.70;;;;;;;3.09;100.00;99474.75;1696542;83;21487;-67
2021/12/10 04:01:17;;;;;;;19.27;12.73;;;;;;;3.07;100.00;99478.28;1721132;83;21516;-68
2021/12/10 04:03:45;;;;;;;19.98;13.10;;;;;;;3.06;100.00;99473.91;1696644;83;21516;-67
2021/12/10 04:06:16;;;;;;;20.35;13.83;;;;;;;3.07;100.00;99473.63;1721115;83;21131;-66
2021/12/10 04:08:44;;;;;;;22.67;14.38;;;;;;;3.08;100.00;99467.12;1721329;83;20988;-67
2021/12/10 04:11:10;;;;;;;18.48;11.15;;;;;;;3.10;100.00;99466.30;1696767;83;20884;-67
2021/12/10 04:13:39;;;;;;;20.68;13.18;;;;;;;3.11;100.00;99462.48;1696751;83;20963;-67
2021/12/10 04:16:08;;;;;;;21.87;14.55;;;;;;;3.09;100.00;99461.93;1696736;83;21456;-67
2021/12/10 04:18:37;;;;;;;24.45;14.43;;;;;;;3.11;100.00;99458.93;1721093;83;21141;-66
2021/12/10 04:21:05;;;;;;;22.77;14.90;;;;;;;3.13;100.00;99464.40;1721246;83;20967;-66
2021/12/10 04:23:32;;;;;;;23.52;14.65;;;;;;;3.13;100.00;99467.13;1721168;83;20944;-67
2021/12/10 04:25:58;;;;;;;23.57;15.18;;;;;;;3.14;100.00;99461.94;1696695;83;20892;-67
2021/12/10 04:28:27;;;;;;;26.15;15.83;;;;;;;3.16;100.00;99459.77;1721638;83;21044;-66
2021/12/10 04:30:54;;;;;;;25.05;16.15;;;;;;;3.15;100.00;99464.12;1721038;82;22054;-66
2021/12/10 04:33:26;;;;;;;25.60;15.65;;;;;;;3.17;100.00;99463.31;1721111;83;20936;-66
2021/12/10 04:35:56;;;;;;;28.80;16.07;;;;;;;3.14;100.00;99466.55;1721446;83;20848;-66
2021/12/10 04:38:23;;;;;;;24.52;14.80;;;;;;;3.14;100.00;99467.91;1721546;83;20888;-67
2021/12/10 04:40:50;;;;;;;22.10;13.72;;;;;;;3.16;100.00;99472.02;1721298;83;21425;-66
2021/12/10 04:43:20;;;;;;;25.65;14.90;;;;;;;3.20;100.00;99464.66;1696848;83;21085;-66
2021/12/10 04:45:48;;;;;;;32.78;15.28;;;;;;;3.18;100.00;99458.66;1696870;82;21031;-66
2021/12/10 04:48:14;;;;;;;26.07;16.70;;;;;;;3.19;100.00;99449.42;1696760;83;21059;-67
2021/12/10 04:50:42;;;;;;;28.98;15.93;;;;;;;3.20;100.00;99453.23;1721300;82;21390;-66
2021/12/10 04:53:09;;;;;;;23.75;14.85;;;;;;;3.23;100.00;99439.60;1696847;83;20984;-67
2021/12/10 04:55:37;;;;;;;26.60;15.75;;;;;;;3.23;100.00;99433.62;1721189;83;20995;-69
2021/12/10 04:58:04;;;;;;;24.63;15.43;;;;;;;3.24;100.00;99434.45;1721189;83;21001;-68
2021/12/10 05:00:38;;;;;;;24.37;15.88;;;;;;;3.26;100.00;99424.07;1721139;83;20996;-69
2021/12/10 05:03:05;;;;;;;26.27;15.08;;;;;;;3.27;100.00;99432.00;1691374;83;21464;-66
2021/12/10 05:05:34;;;;;;;23.92;14.38;;;;;;;3.29;100.00;99441.25;1687264;83;21099;-67
2021/12/10 05:08:03;;;;;;;25.70;14.60;;;;;;;3.32;100.00;99439.34;1686782;83;21222;-67
2021/12/10 05:10:31;;;;;;;25.37;14.87;;;;;;;3.33;100.00;99438.23;1664399;83;20964;-67
2021/12/10 05:12:59;;;;;;;23.90;14.53;;;;;;;3.37;100.00;99446.15;1686930;83;21009;-67
2021/12/10 05:15:27;;;;;;;22.93;14.93;;;;;;;3.37;100.00;99435.25;1686924;83;21039;-66
2021/12/10 05:17:57;;;;;;;24.92;16.07;;;;;;;3.40;100.00;99437.96;1714996;83;21000;-68
2021/12/10 05:20:28;;;;;;;25.20;16.82;;;;;;;3.40;100.00;99442.88;1715573;83;22011;-67
2021/12/10 05:22:54;;;;;;;24.55;15.78;;;;;;;3.41;100.00;99446.42;1715200;83;20995;-67
2021/12/10 05:25:25;;;;;;;26.87;16.90;;;;;;;3.42;100.00;99442.59;1715339;83;20845;-66
2021/12/10 05:27:53;;;;;;;25.50;15.13;;;;;;;3.44;100.00;99442.31;1686804;83;20964;-67
2021/12/10 05:30:22;;;;;;;31.97;18.10;;;;;;;3.47;100.00;99451.30;1686705;83;20941;-68
2021/12/10 05:32:49;;;;;;;36.40;20.35;;;;;;;3.48;100.00;99467.94;1686611;83;21025;-67
2021/12/10 05:35:19;;;;;;;34.83;19.87;;;;;;;3.49;100.00;99476.38;1715221;83;20928;-68
2021/12/10 05:37:48;;;;;;;40.30;22.15;;;;;;;3.48;100.00;99482.36;1715038;83;21461;-67
2021/12/10 05:40:15;;;;;;;36.68;20.25;;;;;;;3.48;100.00;99479.62;1715828;83;21020;-67
2021/12/10 05:42:44;;;;;;;36.53;20.43;;;;;;;3.49;100.00;99481.28;1686812;83;21468;-68
2021/12/10 05:45:12;;;;;;;40.40;19.70;;;;;;;3.50;100.00;99476.63;1715279;80;21110;-68
2021/12/10 05:47:38;;;;;;;35.73;20.02;;;;;;;3.49;100.00;99481.82;1715150;83;21441;-68
2021/12/10 05:50:09;;;;;;;33.88;19.40;;;;;;;3.48;100.00;99479.62;1715617;83;20987;-66
2021/12/10 05:52:37;;;;;;;33.35;18.12;;;;;;;3.49;100.00;99475.84;1715232;83;21010;-68
2021/12/10 05:55:07;;;;;;;33.28;17.17;;;;;;;3.51;100.00;99486.45;1686813;83;21039;-68
2021/12/10 05:57:33;;;;;;;28.83;17.50;;;;;;;3.52;100.00;99483.99;1715284;83;21200;-67
2021/12/10 05:59:59;;;;;;;29.30;17.62;;;;;;;3.52;100.00;99477.18;1715414;83;21449;-67
2021/12/10 06:02:26;;;;;;;29.45;17.60;;;;;;;3.53;100.00;99482.92;1715464;83;20984;-68
2021/12/10 06:04:55;;;;;;;28.07;16.73;;;;;;;3.55;100.00;99487.53;1721231;82;21055;-67
2021/12/10 06:07:23;;;;;;;31.05;17.27;;;;;;;3.56;100.00;99485.09;1721166;82;21595;-67
2021/12/10 06:09:51;;;;;;;26.68;15.90;;;;;;;3.56;100.00;99482.37;1721178;83;20872;-68
2021/12/10 06:12:17;;;;;;;26.75;16.20;;;;;;;3.57;100.00;99483.98;1721469;83;21516;-67
2021/12/10 06:14:46;;;;;;;29.12;15.43;;;;;;;3.57;100.00;99478.54;1721210;83;20892;-68
2021/12/10 06:17:12;;;;;;;22.22;14.70;;;;;;;3.60;100.00;99482.08;1696887;83;20936;-67
2021/12/10 06:19:38;;;;;;;27.07;15.28;;;;;;;3.61;100.00;99481.00;1721249;83;21003;-68
2021/12/10 06:22:06;;;;;;;23.02;14.15;;;;;;;3.63;100.00;99480.72;1697069;83;21888;-68
2021/12/10 06:24:33;;;;;;;22.07;14.98;;;;;;;3.61;100.00;99485.09;1721235;82;21013;-68
2021/12/10 06:27:00;;;;;;;23.83;14.65;;;;;;;3.63;100.00;99481.52;1721044;83;20927;-68
2021/12/10 06:29:30;;;;;;;27.02;15.95;;;;;;;3.65;100.00;99488.09;1721048;83;20939;-68
2021/12/10 06:31:56;;;;;;;28.85;17.05;;;;;;;3.65;100.00;99491.61;1721424;82;20999;-68
2021/12/10 06:34:23;;;;;;;28.00;16.10;;;;;;;3.68;100.00;99490.26;1696543;83;20943;-67
2021/12/10 06:36:50;;;;;;;26.75;17.07;;;;;;;3.70;100.00;99491.34;1721127;83;20988;-68
2021/12/10 06:39:20;;;;;;;27.80;16.52;;;;;;;3.73;100.00;99492.16;1696545;83;20956;-67
2021/12/10 06:41:54;;;;;;;25.25;16.00;;;;;;;3.71;100.00;99484.79;1721120;82;20860;-66
2021/12/10 06:44:21;;;;;;;24.35;14.50;;;;;;;3.70;100.00;99484.53;1696724;82;20944;-67
2021/12/10 06:46:48;;;;;;;26.68;15.58;;;;;;;3.70;100.00;99478.52;1721064;82;21049;-65
2021/12/10 06:49:15;;;;;;;24.92;16.23;;;;;;;3.72;100.00;99474.97;1721355;82;20983;-66
2021/12/10 06:51:42;;;;;;;28.50;16.25;;;;;;;3.75;100.00;99485.89;1721195;83;20892;-67
2021/12/10 06:54:08;;;;;;;28.00;16.48;;;;;;;3.76;100.00;99471.98;1696894;83;21063;-67
2021/12/10 06:56:36;;;;;;;23.45;15.18;;;;;;;3.77;100.00;99470.88;1721155;82;20963;-66
2021/12/10 06:59:05;;;;;;;22.67;15.75;;;;;;;3.80;100.00;99474.16;1721284;83;21442;-68
2021/12/10 07:01:39;;;;;;;28.73;17.20;;;;;;;3.80;100.00;99479.06;1720846;83;20959;-68
2021/12/10 07:04:11;;;;;;;29.32;15.70;;;;;;;3.81;100.00;99476.59;1696733;83;21485;-67
2021/12/10 07:06:44;;;;;;;29.10;16.40;;;;;;;3.83;100.00;99478.51;1721179;83;20905;-69
2021/12/10 07:09:21;;;;;;;25.62;16.77;;;;;;;3.85;100.00;99487.77;1721348;83;20943;-68
2021/12/10 07:11:49;;;;;;;29.12;16.70;;;;;;;3.86;100.00;99486.66;1720839;83;21922;-67
2021/12/10 07:14:17;;;;;;;26.27;14.40;;;;;;;3.88;100.00;99485.31;1721365;83;20892;-68
2021/12/10 07:16:45;;;;;;;25.30;15.50;;;;;;;3.90;100.00;99472.77;1721141;83;21007;-68
2021/12/10 07:19:11;;;;;;;23.75;15.40;;;;;;;3.94;100.00;99467.02;1721127;83;21441;-68
2021/12/10 07:21:38;;;;;;;24.77;16.05;;;;;;;3.97;100.00;99465.13;1696607;83;21038;-68
2021/12/10 07:24:09;;;;;;;24.35;15.70;;;;;;;4.01;100.00;99468.08;1721434;83;21081;-68
2021/12/10 07:26:37;;;;;;;33.20;17.30;;;;;;;4.04;100.00;99458.02;1721130;83;21468;-68
2021/12/10 07:29:05;;;;;;;26.70;16.20;;;;;;;4.06;100.00;99453.64;1721362;83;20975;-68
2021/12/10 07:31:38;;;;;;;27.20;16.17;;;;;;;4.09;100.00;99451.18;1721058;82;21014;-68
2021/12/10 07:34:07;;;;;;;42.00;18.57;;;;;;;4.11;100.00;99445.44;1696624;83;20995;-67
2021/12/10 07:36:37;;;;;;;33.83;18.17;;;;;;;4.13;100.00;99429.05;1696548;83;21055;-67
2021/12/10 07:39:08;;;;;;;36.75;17.90;;;;;;;4.16;100.00;99417.33;1721013;82;20937;-67
2021/12/10 07:41:36;;;;;;;29.02;17.40;;;;;;;4.19;100.00;99406.67;1721022;83;21082;-68
2021/12/10 07:44:05;;;;;;;30.27;17.42;;;;;;;4.24;100.00;99415.38;1721099;80;20975;-68
2021/12/10 07:46:34;;;;;;;29.15;17.17;;;;;;;4.28;100.00;99421.92;1721171;83;20912;-68
2021/12/10 07:49:03;;;;;;;28.77;17.23;;;;;;;4.30;100.00;99422.43;1697026;83;21293;-69
2021/12/10 07:51:31;;;;;;;27.45;16.67;;;;;;;4.32;100.00;99424.88;1721071;83;20979;-69
2021/12/10 07:54:00;;;;;;;26.97;16.93;;;;;;;4.33;100.00;99431.98;1721286;83;21040;-69
2021/12/10 07:56:29;;;;;;;23.80;14.50;;;;;;;4.35;100.00;99430.59;1721223;83;21055;-67
2021/12/10 07:58:58;;;;;;;26.55;16.32;;;;;;;4.37;100.00;99422.95;1721138;83;36298;-67
2021/12/10 08:01:31;;;;;;;25.23;16.23;;;;;;;4.40;100.00;99440.69;1721195;82;21515;-67
2021/12/10 08:04:00;;;;;;;24.90;15.53;;;;;;;4.42;100.00;99450.74;1718651;82;20956;-68
2021/12/10 08:06:30;;;;;;;21.02;15.15;;;;;;;4.44;100.00;99447.73;1715150;83;21016;-68
2021/12/10 08:08:58;;;;;;;25.35;15.15;;;;;;;4.43;100.00;99453.76;1715160;83;21533;-69
2021/12/10 08:11:25;;;;;;;24.82;15.18;;;;;;;4.45;100.00;99437.90;1715108;83;20920;-68
2021/12/10 08:13:58;;;;;;;23.83;15.68;;;;;;;4.48;100.00;99437.91;1715598;83;21799;-69
2021/12/10 08:16:25;;;;;;;25.00;15.93;;;;;;;4.50;100.00;99439.81;1715142;83;20996;-67
2021/12/10 08:18:54;;;;;;;24.00;14.47;;;;;;;4.53;100.00;99434.33;1687355;83;20944;-67
2021/12/10 08:21:23;;;;;;;25.70;15.23;;;;;;;4.55;100.00;99426.67;1715192;83;21473;-69
2021/12/10 08:23:59;;;;;;;22.87;14.93;;;;;;;4.57;100.00;99417.09;1715337;83;20940;-69
2021/12/10 08:26:26;;;;;;;23.20;15.15;;;;;;;4.61;100.00;99409.98;1715061;83;21136;-68
2021/12/10 08:28:53;;;;;;;25.25;15.15;;;;;;;4.63;100.00;99420.08;1687039;83;21446;-69
2021/12/10 08:31:20;;;;;;;23.05;15.20;;;;;;;4.64;100.00;99424.97;1715140;83;21432;-68
2021/12/10 08:33:49;;;;;;;26.02;15.45;;;;;;;4.68;100.00;99423.86;1715082;83;21049;-67
2021/12/10 08:36:22;;;;;;;23.60;14.35;;;;;;;4.68;100.00;99419.77;1715689;83;20980;-68
2021/12/10 08:38:49;;;;;;;24.77;14.83;;;;;;;4.69;100.00;99429.60;1687093;83;21779;-68
2021/12/10 08:41:24;;;;;;;20.55;14.03;;;;;;;4.69;100.00;99424.94;1715106;83;20995;-68
2021/12/10 08:43:56;;;;;;;21.97;14.53;;;;;;;4.72;100.00;99434.49;1715399;80;20977;-68
2021/12/10 08:46:23;;;;;;;23.47;15.18;;;;;;;4.74;100.00;99429.57;1686642;83;20857;-68
2021/12/10 08:48:49;;;;;;;23.42;14.33;;;;;;;4.73;100.00;99419.73;1715314;83;20888;-68
2021/12/10 08:51:22;;;;;;;23.90;16.02;;;;;;;4.73;100.00;99411.00;1715534;83;21766;-67
2021/12/10 08:53:49;;;;;;;25.52;15.63;;;;;;;4.72;100.00;99406.66;1715573;83;20968;-68
2021/12/10 08:56:16;;;;;;;30.92;17.60;;;;;;;4.71;100.00;99409.09;1715245;83;20924;-67
2021/12/10 08:58:45;;;;;;;25.57;16.77;;;;;;;4.71;100.00;99405.00;1715649;83;20912;-68
2021/12/10 09:01:17;;;;;;;29.12;17.23;;;;;;;4.74;100.00;99421.38;1687005;83;20945;-68
2021/12/10 09:03:48;;;;;;;26.45;17.02;;;;;;;4.77;100.00;99399.52;1716340;83;21784;-68
2021/12/10 09:06:17;;;;;;;29.57;18.37;;;;;;;4.78;100.00;99401.95;1721442;82;20987;-69
2021/12/10 09:08:44;;;;;;;28.50;18.57;;;;;;;4.82;100.00;99400.84;1696635;83;20967;-68
2021/12/10 09:11:13;;;;;;;31.55;18.00;;;;;;;4.82;100.00;99399.47;1721360;83;21011;-68
2021/12/10 09:13:42;;;;;;;32.05;19.35;;;;;;;4.81;100.00;99390.46;1721520;83;20916;-68
2021/12/10 09:16:21;;;;;;;23.85;15.93;;;;;;;4.81;100.00;99392.39;1721505;83;21161;-69
2021/12/10 09:18:45;;;;;;;26.17;17.32;;;;;;;4.83;100.00;99391.00;1720905;83;20996;-68
2021/12/10 09:21:11;;;;;;;31.70;20.30;;;;;;;4.84;100.00;99389.09;1721211;83;21025;-67
2021/12/10 09:23:39;;;;;;;28.92;19.12;;;;;;;4.83;100.00;99384.17;1696807;83;21000;-68
2021/12/10 09:26:10;;;;;;;31.48;18.98;;;;;;;4.82;100.00;99379.00;1721529;83;21015;-68
2021/12/10 09:28:37;;;;;;;32.03;19.17;;;;;;;4.82;100.00;99379.82;1721249;83;21179;-69
2021/12/10 09:31:05;;;;;;;34.95;19.98;;;;;;;4.83;100.00;99371.06;1720735;83;20992;-69
2021/12/10 09:33:32;;;;;;;38.20;22.00;;;;;;;4.85;100.00;99370.23;1673539;83;21531;-68
2021/12/10 09:36:00;;;;;;;39.80;22.77;;;;;;;4.88;100.00;99369.66;1721169;83;20944;-70
2021/12/10 09:38:27;;;;;;;40.73;22.93;;;;;;;4.91;100.00;99373.75;1721159;83;20983;-68
2021/12/10 09:40:58;;;;;;;33.38;21.60;;;;;;;4.93;100.00;99369.62;1721117;83;21189;-67
2021/12/10 09:43:25;;;;;;;40.15;23.42;;;;;;;4.95;100.00;99366.05;1721212;80;20987;-68
2021/12/10 09:45:54;;;;;;;32.45;20.08;;;;;;;4.97;100.00;99367.13;1696821;83;20848;-68
2021/12/10 09:48:24;;;;;;;30.20;19.40;;;;;;;4.97;100.00;99362.49;1721130;82;20924;-69
2021/12/10 09:51:04;;;;;;;29.70;19.45;;;;;;;4.99;100.00;99362.20;1721546;82;21422;-68
2021/12/10 09:53:33;;;;;;;27.25;18.87;;;;;;;4.98;100.00;99361.37;1721119;83;21807;-69
2021/12/10 09:56:01;;;;;;;28.62;19.17;;;;;;;4.98;100.00;99356.48;1721521;83;20982;-69
2021/12/10 09:58:29;;;;;;;32.30;20.05;;;;;;;4.97;100.00;99359.77;1721213;83;20947;-68
2021/12/10 10:01:04;;;;;;;32.58;20.60;;;;;;;4.97;100.00;99354.84;1697154;83;20985;-69
2021/12/10 10:03:37;;;;;;;27.82;18.82;;;;;;;4.97;100.00;99353.48;1720688;82;20928;-67
2021/12/10 10:06:10;;;;;;;32.98;20.62;;;;;;;4.97;100.00;99353.48;1696854;83;21047;-68
2021/12/10 10:08:38;;;;;;;30.05;19.37;;;;;;;4.98;100.00;99346.36;1721194;83;20876;-68
2021/12/10 10:11:10;;;;;;;29.72;20.57;;;;;;;5.00;100.00;99348.80;1721148;83;21074;-69
2021/12/10 10:13:40;;;;;;;32.38;20.68;;;;;;;5.00;100.00;99348.80;1696518;83;21544;-69
2021/12/10 10:16:10;;;;;;;31.25;20.62;;;;;;;4.99;100.00;99343.91;1721590;82;20979;-69
2021/12/10 10:18:38;;;;;;;28.50;18.77;;;;;;;5.00;100.00;99350.17;1721106;82;21288;-69
2021/12/10 10:21:11;;;;;;;27.90;18.50;;;;;;;5.01;100.00;99342.80;1720927;83;20928;-68
2021/12/10 10:23:41;;;;;;;32.70;20.05;;;;;;;4.99;100.00;99343.09;1720532;83;20988;-68
2021/12/10 10:26:13;;;;;;;30.50;20.65;;;;;;;5.00;100.00;99326.95;1721370;83;20956;-70
2021/12/10 10:28:40;;;;;;;30.70;18.92;;;;;;;5.01;100.00;99323.14;1696707;83;21448;-70
2021/12/10 10:31:12;;;;;;;30.32;20.75;;;;;;;5.02;100.00;99321.20;1696519;83;21064;-70
2021/12/10 10:33:40;;;;;;;31.48;21.65;;;;;;;5.02;100.00;99325.30;1721186;83;20845;-69
2021/12/10 10:36:18;;;;;;;28.65;19.17;;;;;;;5.01;100.00;99320.41;1721363;83;21489;-69
2021/12/10 10:38:47;;;;;;;30.57;20.82;;;;;;;5.01;100.00;99312.22;1720828;83;20928;-70
2021/12/10 10:41:14;;;;;;;34.13;21.48;;;;;;;5.02;100.00;99315.74;1696977;83;20927;-69
2021/12/10 10:43:43;;;;;;;30.08;20.02;;;;;;;5.02;100.00;99307.00;1721111;80;21136;-69
2021/12/10 10:46:11;;;;;;;35.75;21.50;;;;;;;5.04;100.00;99305.34;1721444;83;20980;-70
2021/12/10 10:48:43;;;;;;;30.72;20.92;;;;;;;5.03;100.00;99297.73;1696705;83;20936;-70
2021/12/10 10:51:13;;;;;;;33.25;20.15;;;;;;;5.06;100.00;99297.69;1721486;83;20920;-70
2021/12/10 10:53:47;;;;;;;32.90;21.25;;;;;;;5.06;100.00;99288.95;1721369;83;20952;-70
2021/12/10 10:56:19;;;;;;;30.82;21.65;;;;;;;5.06;100.00;99286.77;1721474;83;21115;-69
2021/12/10 10:58:54;;;;;;;34.00;20.35;;;;;;;5.03;100.00;99284.61;1721134;82;21061;-68
2021/12/10 11:01:28;;;;;;;29.05;20.10;;;;;;;5.05;100.00;99285.14;1697008;83;20929;-69
2021/12/10 11:04:03;;;;;;;38.88;21.25;;;;;;;5.05;100.00;99285.94;1721141;82;21487;-68
2021/12/10 11:06:38;;;;;;;35.63;23.18;;;;;;;5.07;100.00;99293.84;1721078;83;21504;-69
2021/12/10 11:09:14;;;;;;;35.52;22.17;;;;;;;5.07;100.00;99283.74;1721391;83;21833;-68
2021/12/10 11:11:52;;;;;;;33.15;21.40;;;;;;;5.06;100.00;99282.13;1721161;82;20872;-69
2021/12/10 11:14:33;;;;;;;35.65;23.10;;;;;;;5.10;100.00;99285.89;1696739;83;20968;-70
2021/12/10 11:17:16;;;;;;;36.53;23.22;;;;;;;5.11;100.00;99283.98;1718766;83;20948;-69
2021/12/10 11:20:16;;;;;;;36.95;24.27;;;;;;;5.07;100.00;99287.02;1696601;83;20981;-69
2021/12/10 11:22:56;;;;;;;37.73;24.15;;;;;;;5.07;100.00;99287.84;1696901;83;21453;-69
2021/12/10 11:25:27;;;;;;;35.20;23.55;;;;;;;5.07;100.00;99289.20;1721183;83;21377;-69
2021/12/10 11:28:21;;;;;;;39.70;25.32;;;;;;;5.06;100.00;99276.66;1721418;83;20984;-71
2021/12/10 11:31:03;;;;;;;42.75;26.40;;;;;;;5.05;100.00;99272.28;1721354;82;21570;-70
2021/12/10 11:33:28;;;;;;;40.23;25.02;;;;;;;5.05;100.00;99251.80;1721028;82;21564;-69
2021/12/10 11:36:09;;;;;;;38.78;25.05;;;;;;;5.05;100.00;99247.70;1696586;83;21027;-69
2021/12/10 11:38:36;;;;;;;41.88;25.60;;;;;;;5.03;100.00;99256.77;1721510;83;20939;-69
2021/12/10 11:41:16;;;;;;;40.73;24.98;;;;;;;5.02;100.00;99255.11;1697213;83;21003;-69